Time;durP1;ratioP1;P1;durP2;ratioP2;P2;SDS_P1;SDS_P2;PMS_P1;PMS_P2;Temp;Humidity;BMP_temperature;BMP_pressure;BME280_temperature;BME280_humidity;BME280_pressure;Samples;Min_cycle;Max_cycle;Signal;HPM_P1;HPM_P2
2021/05/21 00:00:00;;;;;;;10.63;7.97;;;;;;;11.08;70.81;100284.37;1714588;82;35216;-76
2021/05/21 00:02:25;;;;;;;11.33;7.50;;;;;;;11.04;70.81;100278.66;1715543;82;30758;-76
2021/05/21 00:04:52;;;;;;;10.23;7.17;;;;;;;11.05;70.78;100277.69;1715973;82;25299;-76
2021/05/21 00:07:18;;;;;;;10.95;7.37;;;;;;;11.05;70.78;100272.95;1717558;82;25158;-76
2021/05/21 00:09:44;;;;;;;11.05;7.00;;;;;;;11.06;70.84;100272.77;1715870;82;25610;-73
2021/05/21 00:12:09;;;;;;;10.98;7.40;;;;;;;11.06;70.81;100271.46;1717612;82;35313;-73
2021/05/21 00:14:35;;;;;;;11.08;7.47;;;;;;;11.06;70.72;100281.11;1714010;82;31434;-73
2021/05/21 00:17:01;;;;;;;10.67;7.03;;;;;;;11.06;70.78;100277.19;1709988;82;25656;-76
2021/05/21 00:19:27;;;;;;;11.70;7.87;;;;;;;11.06;70.75;100276.69;1716193;82;29008;-76
2021/05/21 00:21:53;;;;;;;10.57;8.20;;;;;;;11.05;70.81;100275.57;1714837;82;26439;-73
2021/05/21 00:24:19;;;;;;;9.73;7.37;;;;;;;11.08;70.92;100270.00;1717431;82;34726;-73
2021/05/21 00:26:44;;;;;;;12.70;8.03;;;;;;;11.05;70.77;100264.61;1716758;82;32295;-73
2021/05/21 00:29:10;;;;;;;11.07;7.33;;;;;;;11.08;70.94;100268.19;1715428;82;25572;-73
2021/05/21 00:31:36;;;;;;;9.17;6.77;;;;;;;11.11;70.90;100264.42;1717582;82;27916;-73
2021/05/21 00:34:02;;;;;;;11.93;7.83;;;;;;;11.11;70.99;100264.42;1718335;82;25681;-73
2021/05/21 00:36:27;;;;;;;10.13;6.50;;;;;;;11.12;70.92;100263.42;1718827;82;35062;-73
2021/05/21 00:38:53;;;;;;;10.78;6.53;;;;;;;11.14;70.96;100262.77;1715123;82;32365;-73
2021/05/21 00:41:23;;;;;;;11.70;7.60;;;;;;;11.13;70.86;100260.31;1714583;82;25321;-76
2021/05/21 00:43:57;;;;;;;9.80;6.60;;;;;;;11.14;70.96;100257.53;1718399;82;25687;-76
2021/05/21 00:46:24;;;;;;;10.13;6.78;;;;;;;11.16;70.92;100246.41;1715662;82;25179;-76
2021/05/21 00:48:50;;;;;;;10.48;7.33;;;;;;;11.16;70.91;100242.95;1717329;82;25197;-76
2021/05/21 00:51:16;;;;;;;10.90;6.60;;;;;;;11.17;70.93;100246.72;1716957;82;31310;-76
2021/05/21 00:53:42;;;;;;;13.07;7.60;;;;;;;11.18;70.87;100244.42;1720197;82;25278;-76
2021/05/21 00:56:08;;;;;;;10.63;7.08;;;;;;;11.19;70.92;100246.56;1716547;82;25536;-77
2021/05/21 00:58:36;;;;;;;10.65;6.75;;;;;;;11.19;70.87;100243.95;1715518;82;25802;-76
2021/05/21 01:01:03;;;;;;;10.23;6.67;;;;;;;11.17;70.81;100240.69;1718651;82;25181;-77
2021/05/21 01:03:29;;;;;;;10.55;7.03;;;;;;;11.16;70.90;100242.48;1718518;82;25579;-77
2021/05/21 01:05:55;;;;;;;11.20;6.28;;;;;;;11.18;71.00;100239.69;1713450;82;26445;-77
2021/05/21 01:08:21;;;;;;;11.20;7.07;;;;;;;11.20;71.03;100239.84;1712867;82;26668;-76
2021/05/21 01:10:47;;;;;;;11.33;7.33;;;;;;;11.19;71.00;100238.22;1715581;82;25321;-77
2021/05/21 01:13:14;;;;;;;11.83;7.47;;;;;;;11.17;71.06;100240.19;1714683;82;25692;-76
2021/05/21 01:15:42;;;;;;;10.90;7.45;;;;;;;11.14;71.02;100241.03;1716922;82;25249;-77
2021/05/21 01:18:11;;;;;;;11.43;7.47;;;;;;;11.09;71.08;100233.69;1715169;82;26355;-77
2021/05/21 01:20:37;;;;;;;10.08;7.03;;;;;;;11.10;71.15;100235.30;1716209;82;25690;-76
2021/05/21 01:23:04;;;;;;;10.18;7.53;;;;;;;11.09;71.28;100231.07;1714798;82;25433;-76
2021/05/21 01:25:33;;;;;;;11.28;7.12;;;;;;;11.04;71.24;100232.88;1715761;82;25720;-73
2021/05/21 01:27:59;;;;;;;11.33;7.65;;;;;;;11.03;71.23;100238.30;1714044;82;25178;-73
2021/05/21 01:30:27;;;;;;;9.08;7.12;;;;;;;11.00;71.23;100234.72;1715052;82;25481;-77
2021/05/21 01:32:54;;;;;;;10.93;7.17;;;;;;;11.00;71.41;100234.72;1719585;82;26357;-76
2021/05/21 01:35:20;;;;;;;10.95;7.53;;;;;;;10.99;71.37;100233.89;1717393;82;25641;-73
2021/05/21 01:37:50;;;;;;;13.15;7.28;;;;;;;11.01;71.37;100235.03;1715123;82;25209;-73
2021/05/21 01:40:16;;;;;;;10.27;7.37;;;;;;;11.00;71.43;100235.53;1715459;82;25533;-74
2021/05/21 01:42:43;;;;;;;10.03;6.92;;;;;;;11.03;71.40;100242.22;1714596;82;26469;-75
2021/05/21 01:45:11;;;;;;;9.10;6.65;;;;;;;11.01;71.47;100238.45;1715882;82;25604;-77
2021/05/21 01:47:38;;;;;;;12.18;7.75;;;;;;;10.99;71.54;100237.00;1717404;82;25660;-77
2021/05/21 01:50:06;;;;;;;9.35;6.97;;;;;;;10.96;71.54;100230.80;1717670;82;25829;-76
2021/05/21 01:52:32;;;;;;;10.30;8.15;;;;;;;10.96;71.65;100226.88;1713612;82;26463;-73
2021/05/21 01:54:58;;;;;;;10.73;7.80;;;;;;;10.92;71.77;100227.73;1716302;82;25849;-77
2021/05/21 01:57:24;;;;;;;13.08;8.90;;;;;;;10.88;71.84;100225.95;1717921;82;25504;-77
2021/05/21 01:59:50;;;;;;;13.27;8.00;;;;;;;10.86;71.88;100221.38;1717338;82;25434;-76
2021/05/21 02:02:17;;;;;;;13.10;9.48;;;;;;;10.88;71.88;100221.19;1717620;82;34753;-76
2021/05/21 02:04:42;;;;;;;15.55;8.93;;;;;;;10.89;71.96;100226.77;1716625;82;25660;-74
2021/05/21 02:07:15;;;;;;;11.80;9.20;;;;;;;10.79;71.75;100227.45;1715801;82;45594;-73
2021/05/21 02:10:02;;;;;;;14.68;10.43;;;;;;;10.70;71.91;100225.37;1716112;82;25676;-73
2021/05/21 02:12:31;;;;;;;16.00;9.65;;;;;;;10.66;72.08;100225.36;1713613;82;26226;-77
2021/05/21 02:14:59;;;;;;;18.55;10.50;;;;;;;10.63;72.25;100229.63;1712852;82;25145;-76
2021/05/21 02:17:26;;;;;;;17.30;10.50;;;;;;;10.58;72.33;100233.23;1713799;82;25175;-77
2021/05/21 02:19:57;;;;;;;14.85;11.10;;;;;;;10.50;72.39;100232.76;1715751;82;25769;-76
2021/05/21 02:22:22;;;;;;;13.50;10.30;;;;;;;10.48;72.61;100229.52;1714253;82;25283;-77
2021/05/21 02:24:49;;;;;;;18.37;10.32;;;;;;;10.43;72.62;100229.20;1714525;82;25209;-77
2021/05/21 02:27:16;;;;;;;14.95;10.18;;;;;;;10.43;72.78;100226.09;1717056;82;25216;-76
2021/05/21 02:29:42;;;;;;;14.40;10.15;;;;;;;10.40;72.84;100228.23;1717435;82;25186;-77
2021/05/21 02:32:08;;;;;;;12.20;8.80;;;;;;;10.35;72.94;100224.80;1717139;82;25492;-76
2021/05/21 02:34:33;;;;;;;17.60;10.20;;;;;;;10.30;73.02;100221.88;1714717;82;28132;-76
2021/05/21 02:36:59;;;;;;;15.67;10.53;;;;;;;10.26;73.13;100221.02;1715545;82;25216;-76
2021/05/21 02:39:25;;;;;;;13.43;10.23;;;;;;;10.28;73.37;100227.75;1716255;82;25604;-76
2021/05/21 02:41:51;;;;;;;16.57;10.58;;;;;;;10.29;73.39;100235.12;1715589;82;32284;-74
2021/05/21 02:44:17;;;;;;;13.03;9.53;;;;;;;10.27;73.50;100218.30;1714994;82;25609;-74
2021/05/21 02:46:43;;;;;;;13.05;10.93;;;;;;;10.31;73.56;100225.30;1715714;82;25726;-73
2021/05/21 02:49:09;;;;;;;17.37;14.00;;;;;;;10.31;73.57;100221.38;1714425;82;25544;-74
2021/05/21 02:51:35;;;;;;;17.23;13.40;;;;;;;10.32;73.57;100226.45;1713796;82;34535;-74
2021/05/21 02:54:01;;;;;;;16.73;13.93;;;;;;;10.32;73.72;100225.64;1715630;82;32065;-74
2021/05/21 02:56:27;;;;;;;20.30;14.58;;;;;;;10.26;73.77;100224.95;1718057;82;25470;-74
2021/05/21 02:58:52;;;;;;;15.40;13.40;;;;;;;10.22;73.96;100221.36;1714488;82;27128;-74
2021/05/21 03:01:18;;;;;;;18.17;14.07;;;;;;;10.24;74.03;100226.44;1714637;82;25568;-76
2021/05/21 03:03:44;;;;;;;18.95;15.30;;;;;;;10.26;74.26;100220.56;1714942;82;33350;-76
2021/05/21 03:06:10;;;;;;;18.25;14.40;;;;;;;10.26;74.20;100226.25;1714327;82;32168;-77
2021/05/21 03:08:36;;;;;;;18.02;14.93;;;;;;;10.21;74.19;100224.97;1714236;82;25718;-76
2021/05/21 03:11:02;;;;;;;19.07;15.17;;;;;;;10.21;74.35;100226.27;1716935;82;28035;-76
2021/05/21 03:13:27;;;;;;;19.13;14.90;;;;;;;10.23;74.54;100226.13;1713869;82;25320;-76
2021/05/21 03:15:53;;;;;;;16.93;13.78;;;;;;;10.23;74.72;100227.42;1715219;82;35014;-77
2021/05/21 03:18:23;;;;;;;17.62;13.13;;;;;;;10.18;74.79;100225.30;1715404;82;32266;-77
2021/05/21 03:20:50;;;;;;;16.40;13.15;;;;;;;10.17;74.88;100228.06;1716594;82;26301;-74
2021/05/21 03:23:18;;;;;;;14.43;11.38;;;;;;;10.17;75.02;100226.76;1716277;82;25158;-74
2021/05/21 03:25:44;;;;;;;16.48;12.33;;;;;;;10.16;75.34;100220.73;1716593;82;25566;-73
2021/05/21 03:28:11;;;;;;;18.57;11.97;;;;;;;10.11;75.33;100225.62;1716150;82;25558;-73
2021/05/21 03:30:39;;;;;;;13.25;11.68;;;;;;;10.12;75.69;100220.75;1715527;82;25634;-76
2021/05/21 03:33:06;;;;;;;17.42;12.43;;;;;;;10.11;75.68;100227.42;1713543;82;25570;-73
2021/05/21 03:35:35;;;;;;;13.90;12.03;;;;;;;10.08;76.00;100228.57;1717362;82;25542;-76
2021/05/21 03:38:02;;;;;;;15.40;12.23;;;;;;;10.04;76.67;100225.14;1714857;82;25539;-76
2021/05/21 03:40:30;;;;;;;17.30;12.55;;;;;;;10.00;77.05;100220.25;1715428;82;26335;-76
2021/05/21 03:42:56;;;;;;;16.75;11.63;;;;;;;10.02;77.07;100220.09;1712954;82;25557;-73
2021/05/21 03:45:22;;;;;;;16.60;11.75;;;;;;;10.06;77.35;100224.49;1716708;82;25509;-73
2021/05/21 03:47:48;;;;;;;15.85;12.10;;;;;;;10.10;77.02;100224.50;1715309;82;25622;-73
2021/05/21 03:50:17;;;;;;;15.83;11.67;;;;;;;10.14;77.64;100227.91;1713854;82;25735;-73
2021/05/21 03:52:42;;;;;;;15.55;12.30;;;;;;;10.15;77.65;100220.91;1682815;82;25650;-73
2021/05/21 03:55:10;;;;;;;15.10;10.65;;;;;;;10.17;77.43;100223.66;1714220;82;31626;-73
2021/05/21 03:57:38;;;;;;;14.85;12.35;;;;;;;10.16;77.44;100221.22;1714831;82;26627;-73
2021/05/21 04:00:07;;;;;;;12.98;10.68;;;;;;;10.20;77.38;100217.28;1713919;82;25637;-73
2021/05/21 04:02:34;;;;;;;;;;;;;;;10.21;77.26;100211.91;1716666;82;25659;-73
2021/05/21 04:05:00;;;;;;;15.35;10.88;;;;;;;10.25;77.62;100214.19;1715872;82;34667;-73
2021/05/21 04:07:25;;;;;;;15.40;10.40;;;;;;;10.25;77.31;100215.48;1721240;82;30972;-73
2021/05/21 04:09:51;;;;;;;15.20;10.60;;;;;;;10.29;77.28;100219.45;1715881;82;25543;-76
2021/05/21 04:12:17;;;;;;;14.57;10.87;;;;;;;10.34;77.36;100214.05;1713283;82;28667;-76
2021/05/21 04:14:43;;;;;;;15.07;11.63;;;;;;;10.36;77.14;100214.67;1716577;82;25869;-76
2021/05/21 04:17:09;;;;;;;15.45;10.15;;;;;;;10.38;76.95;100217.13;1717698;82;34266;-76
2021/05/21 04:19:34;;;;;;;16.07;10.43;;;;;;;10.41;77.07;100213.68;1714432;82;30735;-76
2021/05/21 04:22:00;;;;;;;17.40;11.30;;;;;;;10.45;76.87;100212.88;1718202;82;26060;-76
2021/05/21 04:24:26;;;;;;;12.77;10.43;;;;;;;10.50;76.65;100218.88;1716562;82;27165;-76
2021/05/21 04:26:52;;;;;;;14.60;10.40;;;;;;;10.52;76.76;100215.12;1717280;82;25532;-76
2021/05/21 04:29:18;;;;;;;12.58;9.35;;;;;;;10.54;76.63;100220.19;1717283;82;33030;-76
2021/05/21 04:31:43;;;;;;;13.23;9.57;;;;;;;10.59;76.92;100220.51;1716644;82;32286;-76
2021/05/21 04:34:09;;;;;;;20.90;10.00;;;;;;;10.62;76.67;100218.36;1715013;82;25837;-76
2021/05/21 04:36:35;;;;;;;14.80;10.13;;;;;;;10.67;76.40;100221.78;1717454;82;28109;-76
2021/05/21 04:39:00;;;;;;;12.87;9.53;;;;;;;10.72;76.34;100219.95;1717528;82;25704;-76
2021/05/21 04:41:26;;;;;;;14.45;9.33;;;;;;;10.74;76.15;100219.30;1715856;82;33718;-76
2021/05/21 04:43:54;;;;;;;14.15;9.58;;;;;;;10.80;76.17;100223.37;1718824;82;25193;-76
2021/05/21 04:46:20;;;;;;;13.72;8.80;;;;;;;10.89;76.03;100217.11;1717973;82;25571;-76
2021/05/21 04:48:45;;;;;;;13.97;9.20;;;;;;;10.97;75.87;100217.58;1718657;82;29012;-76
2021/05/21 04:51:11;;;;;;;13.53;8.70;;;;;;;10.98;75.58;100218.38;1718318;82;26329;-76
2021/05/21 04:53:40;;;;;;;13.05;9.48;;;;;;;11.04;75.60;100220.30;1716341;82;35155;-76
2021/05/21 04:56:06;;;;;;;12.35;8.08;;;;;;;11.08;75.37;100212.45;1718352;82;25181;-77
2021/05/21 04:58:32;;;;;;;15.05;9.58;;;;;;;11.07;75.02;100216.03;1716022;82;25579;-76
2021/05/21 05:00:57;;;;;;;11.97;8.60;;;;;;;11.03;74.96;100223.91;1716538;82;30353;-77
2021/05/21 05:03:23;;;;;;;12.97;8.57;;;;;;;11.00;74.87;100214.61;1688015;82;27102;-77
2021/05/21 05:05:49;;;;;;;15.35;8.33;;;;;;;11.02;74.98;100220.49;1716487;82;34369;-77
2021/05/21 05:08:15;;;;;;;11.70;8.43;;;;;;;11.04;74.90;100221.11;1718694;82;31937;-76
2021/05/21 05:10:45;;;;;;;17.35;8.63;;;;;;;11.10;74.89;100215.22;1715977;82;26294;-77
2021/05/21 05:13:11;;;;;;;16.10;9.18;;;;;;;11.19;74.95;100211.25;1717786;82;25197;-77
2021/05/21 05:15:37;;;;;;;16.93;9.00;;;;;;;11.28;74.84;100210.20;1719855;82;25671;-77
2021/05/21 05:18:05;;;;;;;13.70;8.05;;;;;;;11.34;74.35;100217.35;1717574;82;25586;-77
2021/05/21 05:20:31;;;;;;;10.72;8.00;;;;;;;11.40;74.44;100215.34;1719987;82;25727;-77
2021/05/21 05:22:57;;;;;;;10.50;7.07;;;;;;;11.50;74.11;100216.44;1717358;82;25297;-77
2021/05/21 05:25:24;;;;;;;17.92;7.28;;;;;;;11.58;73.92;100218.99;1693797;82;25672;-75
2021/05/21 05:27:51;;;;;;;11.40;7.83;;;;;;;11.67;73.50;100214.50;1717240;82;25152;-74
2021/05/21 05:30:19;;;;;;;12.30;7.37;;;;;;;11.69;72.99;100213.34;1721460;82;25686;-74
2021/05/21 05:32:44;;;;;;;10.82;7.25;;;;;;;11.74;72.81;100212.32;1718896;82;25617;-74
2021/05/21 05:35:11;;;;;;;11.57;7.40;;;;;;;11.82;73.00;100217.19;1717147;82;26056;-74
2021/05/21 05:37:37;;;;;;;11.10;7.42;;;;;;;11.92;72.84;100216.45;1716162;82;25598;-74
2021/05/21 05:40:05;;;;;;;10.50;7.53;;;;;;;12.00;72.67;100216.37;1718458;82;26463;-75
2021/05/21 05:42:31;;;;;;;10.25;7.50;;;;;;;12.05;71.71;100217.16;1718900;82;25612;-74
2021/05/21 05:44:58;;;;;;;13.72;7.40;;;;;;;12.04;71.74;100215.55;1719434;82;25177;-74
2021/05/21 05:47:25;;;;;;;11.28;6.97;;;;;;;12.11;71.49;100218.59;1718799;82;26241;-74
2021/05/21 05:49:50;;;;;;;8.45;6.70;;;;;;;12.14;71.32;100207.75;1720860;82;25225;-74
2021/05/21 05:52:16;;;;;;;11.20;6.13;;;;;;;12.19;71.11;100213.27;1719079;82;28386;-75
2021/05/21 05:54:43;;;;;;;12.78;7.08;;;;;;;12.27;71.15;100209.73;1716188;82;34722;-74
2021/05/21 05:57:09;;;;;;;12.90;7.08;;;;;;;12.35;70.83;100200.97;1716427;82;25547;-74
2021/05/21 05:59:36;;;;;;;10.40;5.80;;;;;;;12.46;71.14;100195.78;1719104;82;25612;-74
2021/05/21 06:02:02;;;;;;;8.40;6.17;;;;;;;12.53;70.82;100198.00;1719081;82;25196;-77
2021/05/21 06:04:28;;;;;;;10.58;6.17;;;;;;;12.59;70.44;100199.39;1720791;82;25196;-77
2021/05/21 06:06:54;;;;;;;12.37;6.75;;;;;;;12.64;70.10;100193.61;1720749;82;34653;-77
2021/05/21 06:09:20;;;;;;;10.58;6.45;;;;;;;12.70;69.81;100198.62;1715170;82;25564;-74
2021/05/21 06:11:45;;;;;;;11.50;5.90;;;;;;;12.78;70.04;100195.89;1716264;82;25546;-74
2021/05/21 06:14:11;;;;;;;14.83;6.03;;;;;;;12.83;69.33;100191.72;1718619;82;31057;-74
2021/05/21 06:16:37;;;;;;;11.70;5.97;;;;;;;12.94;69.42;100193.56;1717266;82;27478;-77
2021/05/21 06:19:04;;;;;;;10.15;6.10;;;;;;;13.01;69.10;100197.05;1716281;82;25573;-77
2021/05/21 06:21:30;;;;;;;12.35;5.92;;;;;;;13.10;68.62;100193.34;1719372;82;25509;-77
2021/05/21 06:23:56;;;;;;;8.13;5.08;;;;;;;13.18;68.22;100197.67;1717837;82;26191;-77
2021/05/21 06:28:52;;;;;;;8.88;4.62;;;;;;;13.43;69.00;100195.02;1717066;82;25189;-74
2021/05/21 06:31:18;;;;;;;8.08;4.78;;;;;;;13.57;68.57;100191.20;1713139;82;25513;-75
2021/05/21 06:33:44;;;;;;;7.35;4.10;;;;;;;13.62;67.39;100181.75;1712516;82;25612;-76
2021/05/21 06:36:11;;;;;;;13.95;4.70;;;;;;;13.65;66.54;100183.19;1716258;82;25535;-76
2021/05/21 06:38:38;;;;;;;8.45;4.17;;;;;;;13.68;67.01;100180.18;1714423;82;26008;-83
2021/05/21 06:41:06;;;;;;;13.35;4.90;;;;;;;13.77;67.08;100182.47;1716281;82;25528;-78
2021/05/21 06:43:33;;;;;;;10.75;5.35;;;;;;;13.89;66.87;100181.97;1714942;82;25604;-77
2021/05/21 06:46:00;;;;;;;7.15;3.62;;;;;;;13.97;67.00;100179.20;1716444;82;25575;-77
2021/05/21 06:48:29;;;;;;;6.12;3.47;;;;;;;14.04;65.52;100170.03;1715605;82;25534;-78
2021/05/21 06:50:54;;;;;;;6.90;3.27;;;;;;;14.08;65.42;100167.34;1714892;82;25543;-76
2021/05/21 06:53:22;;;;;;;10.37;3.23;;;;;;;14.10;64.14;100165.31;1715890;82;29338;-75
2021/05/21 06:55:47;;;;;;;7.53;3.20;;;;;;;14.14;64.42;100162.12;1689995;82;25682;-82
2021/05/21 06:58:13;;;;;;;4.65;2.60;;;;;;;14.27;64.52;100157.45;1717080;82;25208;-80
2021/05/21 07:00:42;;;;;;;6.60;2.98;;;;;;;14.38;62.27;100164.78;1716170;82;25547;-83
2021/05/21 07:03:08;;;;;;;4.53;2.62;;;;;;;14.53;64.09;100167.81;1716622;82;25716;-82
2021/05/21 07:05:34;;;;;;;3.50;2.27;;;;;;;14.64;62.80;100158.84;1718953;82;25435;-77
2021/05/21 07:08:00;;;;;;;6.55;3.50;;;;;;;14.75;62.61;100161.92;1695886;82;25559;-75
2021/05/21 07:10:26;;;;;;;5.42;2.55;;;;;;;14.82;61.34;100150.93;1719346;82;32741;-79
2021/05/21 07:12:51;;;;;;;4.90;2.45;;;;;;;14.81;59.44;100150.13;1719388;82;25690;-77
2021/05/21 07:15:17;;;;;;;10.72;3.20;;;;;;;14.85;59.84;100146.58;1715195;82;32781;-77
2021/05/21 07:17:45;;;;;;;4.75;2.45;;;;;;;14.92;59.13;100147.91;1714510;82;31128;-81
2021/05/21 07:20:13;;;;;;;5.80;2.90;;;;;;;14.97;59.53;100153.39;1719185;82;25598;-83
2021/05/21 07:22:39;;;;;;;6.20;2.75;;;;;;;15.02;60.12;100147.03;1715264;82;25198;-84
2021/05/21 07:25:07;;;;;;;5.33;2.35;;;;;;;15.10;57.83;100145.52;1716786;82;25559;-76
2021/05/21 07:27:34;;;;;;;5.25;2.35;;;;;;;15.15;58.52;100139.16;1713232;82;25570;-83
2021/05/21 07:30:00;;;;;;;4.45;2.02;;;;;;;15.23;58.22;100136.84;1717984;82;25634;-84
2021/05/21 07:32:26;;;;;;;4.50;1.60;;;;;;;15.30;55.36;100139.80;1713268;82;25608;-76
2021/05/21 07:34:52;;;;;;;5.53;2.20;;;;;;;15.30;54.95;100138.48;1712670;82;25751;-78
2021/05/21 07:37:18;;;;;;;4.95;2.47;;;;;;;15.32;54.51;100131.67;1709075;82;26511;-77
2021/05/21 07:39:44;;;;;;;4.17;2.10;;;;;;;15.38;54.72;100129.55;1711672;82;32818;-78
2021/05/21 07:42:10;;;;;;;4.25;2.10;;;;;;;15.44;55.92;100129.23;1709077;82;31647;-76
2021/05/21 07:44:36;;;;;;;3.55;2.17;;;;;;;15.56;54.43;100130.78;1708147;82;25529;-76
2021/05/21 07:47:02;;;;;;;7.00;2.05;;;;;;;15.59;54.79;100118.52;1711929;82;32327;-78
2021/05/21 07:49:28;;;;;;;4.03;2.00;;;;;;;15.63;55.87;100120.55;1709553;82;27052;-76
2021/05/21 07:51:54;;;;;;;5.90;1.57;;;;;;;15.79;55.80;100117.20;1709084;82;32923;-77
2021/05/21 07:54:21;;;;;;;5.83;2.02;;;;;;;15.82;52.53;100108.88;1709261;82;25203;-77
2021/05/21 07:56:47;;;;;;;9.40;2.27;;;;;;;15.69;50.76;100110.53;1711277;82;25543;-81
2021/05/21 07:59:13;;;;;;;4.53;2.47;;;;;;;15.70;52.45;100110.83;1711567;82;25199;-77
2021/05/21 08:01:40;;;;;;;4.65;2.10;;;;;;;15.77;52.14;100113.47;1711686;82;25603;-84
2021/05/21 08:04:06;;;;;;;3.08;1.70;;;;;;;15.89;53.17;100105.73;1712276;82;25225;-78
2021/05/21 08:06:34;;;;;;;10.72;1.87;;;;;;;16.02;51.96;100109.66;1715191;82;25494;-79
2021/05/21 08:09:04;;;;;;;4.30;1.82;;;;;;;16.13;50.76;100110.34;1717554;82;25284;-78
2021/05/21 08:11:31;;;;;;;4.95;2.25;;;;;;;16.19;50.98;100098.15;1714910;82;30915;-76
2021/05/21 08:13:56;;;;;;;3.72;1.85;;;;;;;16.30;51.48;100105.41;1718919;82;25586;-77
2021/05/21 08:16:22;;;;;;;2.33;2.00;;;;;;;16.34;50.96;100107.11;1718147;82;32787;-77
2021/05/21 08:18:48;;;;;;;3.50;1.77;;;;;;;16.28;50.56;100099.52;1714021;82;31494;-79
2021/05/21 08:21:14;;;;;;;3.95;1.30;;;;;;;16.27;50.06;100091.32;1715934;82;34687;-81
2021/05/21 08:23:40;;;;;;;1.62;1.20;;;;;;;16.36;49.09;100097.16;1712935;82;32342;-76
2021/05/21 08:26:07;;;;;;;2.80;1.65;;;;;;;16.46;47.32;100093.58;1714206;82;26099;-76
2021/05/21 08:28:35;;;;;;;2.92;1.62;;;;;;;16.50;48.13;100086.05;1712955;82;26468;-75
2021/05/21 08:31:01;;;;;;;11.85;2.20;;;;;;;16.45;46.78;100085.86;1709268;82;25595;-76
2021/05/21 08:33:29;;;;;;;6.40;1.90;;;;;;;16.39;46.78;100085.67;1711690;82;25591;-78
2021/05/21 08:35:55;;;;;;;4.20;1.30;;;;;;;16.36;47.25;100094.53;1713991;82;25195;-76
2021/05/21 08:38:21;;;;;;;6.42;1.50;;;;;;;16.43;46.51;100088.21;1710305;82;25615;-80
2021/05/21 08:40:48;;;;;;;11.43;1.82;;;;;;;16.58;46.90;100084.48;1714101;82;32875;-78
2021/05/21 08:43:14;;;;;;;6.17;1.72;;;;;;;16.64;45.92;100083.63;1689630;82;25710;-76
2021/05/21 08:45:41;;;;;;;3.50;1.65;;;;;;;16.62;46.67;100082.53;1713911;82;26501;-77
2021/05/21 08:48:17;;;;;;;2.45;1.25;;;;;;;16.57;46.56;100081.55;1688290;82;26753;-79
2021/05/21 08:50:43;;;;;;;3.02;1.40;;;;;;;16.54;45.92;100085.42;1713744;82;25610;-77
2021/05/21 08:53:09;;;;;;;4.17;1.40;;;;;;;16.22;44.45;100064.77;1715495;82;32780;-79
2021/05/21 08:55:35;;;;;;;8.43;2.22;;;;;;;16.22;44.45;100064.77;1715042;82;25389;-77
2021/05/21 08:58:00;;;;;;;5.03;1.92;;;;;;;16.30;46.36;100075.08;1713068;82;35432;-78
2021/05/21 09:00:26;;;;;;;2.83;1.10;;;;;;;16.31;44.80;100079.84;1715029;82;33125;-78
2021/05/21 09:02:52;;;;;;;5.28;1.40;;;;;;;16.37;45.44;100063.20;1714255;82;26472;-78
2021/05/21 09:05:18;;;;;;;2.87;1.37;;;;;;;16.37;45.44;100052.64;1687111;82;33230;-78
2021/05/21 09:07:46;;;;;;;2.75;1.27;;;;;;;16.19;44.97;100025.11;1688676;82;31456;-77
2021/05/21 09:10:18;;;;;;;3.65;1.22;;;;;;;16.47;42.94;100059.57;1717200;82;25607;-77
2021/05/21 09:12:51;;;;;;;6.33;1.50;;;;;;;16.49;44.89;100054.90;1710742;82;25199;-78
2021/05/21 09:15:19;;;;;;;3.72;1.40;;;;;;;16.53;45.53;100065.34;1711223;82;25580;-77
2021/05/21 09:18:00;;;;;;;3.33;1.37;;;;;;;16.57;44.78;100061.25;1710295;82;25708;-78
2021/05/21 09:20:40;;;;;;;;;;;;;;;16.58;45.86;100062.86;1712870;82;25224;-77
2021/05/21 09:23:10;;;;;;;3.92;1.40;;;;;;;16.59;45.67;100060.53;1708884;82;25643;-79
2021/05/21 09:25:48;;;;;;;1.60;1.30;;;;;;;16.59;46.16;100060.53;1710247;82;25591;-79
2021/05/21 09:28:38;;;;;;;2.60;1.40;;;;;;;16.56;45.24;100058.32;1710982;82;25622;-78
2021/05/21 09:31:11;;;;;;;3.05;1.30;;;;;;;16.71;45.01;100053.26;1710362;82;25591;-77
2021/05/21 09:33:41;;;;;;;4.17;1.12;;;;;;;16.97;45.79;100037.76;1709936;82;26119;-76
2021/05/21 09:36:07;;;;;;;5.50;1.67;;;;;;;17.19;43.71;100036.91;1711864;82;25627;-79
2021/05/21 09:38:53;;;;;;;2.55;1.52;;;;;;;17.07;42.35;100038.89;1687580;82;25205;-76
2021/05/21 09:41:19;;;;;;;4.58;1.32;;;;;;;17.02;44.75;100033.48;1715481;82;26961;-75
2021/05/21 09:43:59;;;;;;;3.47;1.50;;;;;;;17.05;44.66;100037.49;1713720;82;32718;-76
2021/05/21 09:46:38;;;;;;;3.98;1.60;;;;;;;17.05;43.64;100032.21;1716555;82;25629;-76
2021/05/21 09:49:38;;;;;;;3.87;1.82;;;;;;;17.13;44.83;100037.22;1708914;82;26373;-76
2021/05/21 09:52:09;;;;;;;2.27;1.30;;;;;;;17.29;44.43;100038.52;1683782;82;25618;-78
2021/05/21 09:54:55;;;;;;;3.12;1.22;;;;;;;17.42;44.19;100033.11;1711089;82;26295;-77
2021/05/21 09:57:36;;;;;;;3.33;1.40;;;;;;;17.41;44.11;100025.42;1716710;82;25599;-77
2021/05/21 10:00:10;;;;;;;4.10;1.30;;;;;;;17.34;44.07;100029.44;1713401;82;25649;-75
2021/05/21 10:02:37;;;;;;;5.50;1.50;;;;;;;17.21;43.55;100025.58;1716573;82;25496;-77
2021/05/21 10:05:07;;;;;;;6.15;1.40;;;;;;;17.21;44.42;100024.27;1714998;82;25893;-75
2021/05/21 10:07:33;;;;;;;2.62;1.20;;;;;;;17.35;42.06;100020.50;1716259;82;25635;-77
2021/05/21 10:09:59;;;;;;;3.10;1.50;;;;;;;17.47;41.24;100019.26;1717231;82;25191;-76
2021/05/21 10:12:25;;;;;;;3.20;1.47;;;;;;;17.40;40.22;100007.94;1715224;82;32093;-77
2021/05/21 10:14:51;;;;;;;4.12;1.45;;;;;;;17.28;41.89;100006.53;1711538;82;34817;-77
2021/05/21 10:17:21;;;;;;;3.67;1.30;;;;;;;17.32;42.29;100009.02;1708771;82;25399;-77
2021/05/21 10:19:50;;;;;;;3.05;1.52;;;;;;;17.43;42.08;100007.49;1709819;82;25649;-77
2021/05/21 10:22:29;;;;;;;2.67;1.55;;;;;;;17.59;42.23;99995.55;1710652;82;25457;-77
2021/05/21 10:25:03;;;;;;;2.72;1.30;;;;;;;17.73;42.06;99995.20;1707337;82;25706;-77
2021/05/21 10:27:31;;;;;;;2.52;1.27;;;;;;;17.85;43.33;99995.80;1709114;82;25525;-77
2021/05/21 10:30:25;;;;;;;2.90;1.35;;;;;;;18.01;42.19;100000.48;1710679;82;25603;-77
2021/05/21 10:33:12;;;;;;;2.62;1.30;;;;;;;18.03;41.81;99989.67;1761128;79;25586;-79
2021/05/21 10:36:25;;;;;;;3.98;1.50;;;;;;;18.18;41.37;99979.52;1761746;79;25516;-77
2021/05/21 10:39:17;;;;;;;3.45;1.55;;;;;;;18.36;42.15;99970.70;1762467;79;25526;-78
2021/05/21 10:42:18;;;;;;;1.85;1.30;;;;;;;18.46;42.21;99964.87;1763646;79;25499;-76
2021/05/21 10:44:45;;;;;;;4.28;1.57;;;;;;;18.55;41.36;99960.85;1762485;79;25536;-75
2021/05/21 10:47:25;;;;;;;2.85;1.40;;;;;;;18.62;39.17;99961.05;1763123;79;25622;-75
2021/05/21 10:50:03;;;;;;;3.52;1.40;;;;;;;18.64;41.28;99960.83;1767280;79;26080;-75
2021/05/21 10:52:56;;;;;;;2.87;1.30;;;;;;;18.69;40.37;99950.86;1760912;79;25539;-75
2021/05/21 10:55:49;;;;;;;2.08;1.37;;;;;;;18.67;39.36;99953.75;1774500;79;25914;-75
2021/05/21 10:58:20;;;;;;;5.15;1.72;;;;;;;18.56;40.45;99942.11;1772348;79;26299;-76
2021/05/21 11:01:16;;;;;;;3.37;1.40;;;;;;;18.56;40.69;99946.08;1769183;79;25770;-76
2021/05/21 11:04:05;;;;;;;3.55;1.30;;;;;;;18.57;40.56;99931.80;1768706;79;25555;-73
2021/05/21 11:06:35;;;;;;;5.40;1.62;;;;;;;18.70;39.27;99932.11;1766280;79;25551;-74
2021/05/21 11:09:07;;;;;;;5.12;1.72;;;;;;;18.71;38.83;99923.13;1764552;79;25910;-76
2021/05/21 11:11:54;;;;;;;2.77;1.57;;;;;;;18.77;39.52;99922.26;1765381;79;25517;-75
2021/05/21 11:14:34;;;;;;;2.52;1.37;;;;;;;18.81;39.63;99916.78;1765595;79;26843;-75
2021/05/21 11:17:17;;;;;;;9.25;2.20;;;;;;;18.80;39.96;99912.53;1763039;79;25681;-78
2021/05/21 11:19:48;;;;;;;12.78;1.47;;;;;;;18.82;40.12;99919.73;1742377;79;25603;-75
2021/05/21 11:22:37;;;;;;;4.00;1.50;;;;;;;18.79;40.51;99907.45;1763712;79;26541;-74
2021/05/21 11:25:16;;;;;;;3.45;1.57;;;;;;;18.75;40.53;99907.11;1765089;79;25841;-74
2021/05/21 11:27:42;;;;;;;5.03;1.40;;;;;;;18.87;39.84;99907.11;1765696;79;26936;-75